sensor_id;sensor_type;location;lat;lon;timestamp;temperature;humidity
23669;DHT22;12011;47.422;15.018;2022-12-18T00:00:56;-9.00;99.90
23669;DHT22;12011;47.422;15.018;2022-12-18T00:03:36;-9.10;99.90
23669;DHT22;12011;47.422;15.018;2022-12-18T00:06:12;-9.10;99.90
23669;DHT22;12011;47.422;15.018;2022-12-18T00:08:48;-9.00;99.90
23669;DHT22;12011;47.422;15.018;2022-12-18T00:11:25;-9.00;99.90
23669;DHT22;12011;47.422;15.018;2022-12-18T00:13:59;-9.00;99.90
23669;DHT22;12011;47.422;15.018;2022-12-18T00:16:33;-7.90;99.90
23669;DHT22;12011;47.422;15.018;2022-12-18T00:19:11;-9.70;99.90
23669;DHT22;12011;47.422;15.018;2022-12-18T00:21:44;-9.10;99.90
23669;DHT22;12011;47.422;15.018;2022-12-18T00:24:15;-9.10;99.90
23669;DHT22;12011;47.422;15.018;2022-12-18T00:26:45;-9.00;99.90
23669;DHT22;12011;47.422;15.018;2022-12-18T00:29:22;-9.00;99.90
23669;DHT22;12011;47.422;15.018;2022-12-18T00:31:52;-9.00;99.90
23669;DHT22;12011;47.422;15.018;2022-12-18T00:34:22;-9.10;99.90
23669;DHT22;12011;47.422;15.018;2022-12-18T00:36:58;-9.10;99.90
23669;DHT22;12011;47.422;15.018;2022-12-18T00:39:28;-9.20;99.90
23669;DHT22;12011;47.422;15.018;2022-12-18T00:41:59;-9.30;99.90
23669;DHT22;12011;47.422;15.018;2022-12-18T00:44:41;-9.30;99.90
23669;DHT22;12011;47.422;15.018;2022-12-18T00:47:10;-9.40;99.90
23669;DHT22;12011;47.422;15.018;2022-12-18T00:49:40;-9.40;99.90
23669;DHT22;12011;47.422;15.018;2022-12-18T00:52:14;-9.40;99.90
23669;DHT22;12011;47.422;15.018;2022-12-18T00:54:43;-9.40;99.90
23669;DHT22;12011;47.422;15.018;2022-12-18T00:57:15;-9.40;99.90
23669;DHT22;12011;47.422;15.018;2022-12-18T00:59:45;-9.50;99.90
23669;DHT22;12011;47.422;15.018;2022-12-18T01:02:15;-9.50;99.90
23669;DHT22;12011;47.422;15.018;2022-12-18T01:04:46;-9.50;99.90
23669;DHT22;12011;47.422;15.018;2022-12-18T01:07:22;-9.30;99.90
23669;DHT22;12011;47.422;15.018;2022-12-18T01:09:51;-9.40;99.90
23669;DHT22;12011;47.422;15.018;2022-12-18T01:12:21;-9.40;99.90
23669;DHT22;12011;47.422;15.018;2022-12-18T01:14:50;-9.50;99.90
23669;DHT22;12011;47.422;15.018;2022-12-18T01:17:20;-9.50;99.90
23669;DHT22;12011;47.422;15.018;2022-12-18T01:19:53;-9.40;99.90
23669;DHT22;12011;47.422;15.018;2022-12-18T01:22:27;-9.30;99.90
23669;DHT22;12011;47.422;15.018;2022-12-18T01:25:01;-9.40;99.90
23669;DHT22;12011;47.422;15.018;2022-12-18T01:27:32;-9.30;99.90
23669;DHT22;12011;47.422;15.018;2022-12-18T01:30:05;-9.50;99.90
23669;DHT22;12011;47.422;15.018;2022-12-18T01:32:35;-9.50;99.90
23669;DHT22;12011;47.422;15.018;2022-12-18T01:35:06;-9.50;99.90
23669;DHT22;12011;47.422;15.018;2022-12-18T01:37:39;-9.50;99.90
23669;DHT22;12011;47.422;15.018;2022-12-18T01:40:09;-9.70;99.90
23669;DHT22;12011;47.422;15.018;2022-12-18T01:42:43;-9.70;99.90
23669;DHT22;12011;47.422;15.018;2022-12-18T01:45:24;-9.70;99.90
23669;DHT22;12011;47.422;15.018;2022-12-18T01:47:57;-9.70;99.90
23669;DHT22;12011;47.422;15.018;2022-12-18T01:50:32;-9.70;99.90
23669;DHT22;12011;47.422;15.018;2022-12-18T01:53:11;-9.70;99.90
23669;DHT22;12011;47.422;15.018;2022-12-18T01:55:47;-9.70;99.90
23669;DHT22;12011;47.422;15.018;2022-12-18T01:58:18;-9.70;99.90
23669;DHT22;12011;47.422;15.018;2022-12-18T02:00:49;-9.70;99.90
23669;DHT22;12011;47.422;15.018;2022-12-18T02:03:26;-9.70;99.90
23669;DHT22;12011;47.422;15.018;2022-12-18T02:06:03;-9.80;99.90
23669;DHT22;12011;47.422;15.018;2022-12-18T02:08:57;-9.90;99.90
23669;DHT22;12011;47.422;15.018;2022-12-18T02:11:40;-9.90;99.90
23669;DHT22;12011;47.422;15.018;2022-12-18T02:14:20;-9.90;99.90
23669;DHT22;12011;47.422;15.018;2022-12-18T02:17:02;-9.90;99.90
23669;DHT22;12011;47.422;15.018;2022-12-18T02:19:59;-9.90;99.90
23669;DHT22;12011;47.422;15.018;2022-12-18T02:22:49;-9.80;99.90
23669;DHT22;12011;47.422;15.018;2022-12-18T02:25:54;-9.90;99.90
23669;DHT22;12011;47.422;15.018;2022-12-18T02:28:36;-9.70;99.90
23669;DHT22;12011;47.422;15.018;2022-12-18T02:31:14;-9.90;99.90
23669;DHT22;12011;47.422;15.018;2022-12-18T02:33:53;-10.00;99.90
23669;DHT22;12011;47.422;15.018;2022-12-18T02:36:29;-9.00;99.90
23669;DHT22;12011;47.422;15.018;2022-12-18T02:39:02;-8.60;99.90
23669;DHT22;12011;47.422;15.018;2022-12-18T02:41:36;-10.10;99.90
23669;DHT22;12011;47.422;15.018;2022-12-18T02:44:11;-8.80;99.90
23669;DHT22;12011;47.422;15.018;2022-12-18T02:46:46;-10.20;99.90
23669;DHT22;12011;47.422;15.018;2022-12-18T02:49:29;-10.20;99.90
23669;DHT22;12011;47.422;15.018;2022-12-18T02:52:12;-10.20;99.90
23669;DHT22;12011;47.422;15.018;2022-12-18T02:54:57;-9.90;99.90
23669;DHT22;12011;47.422;15.018;2022-12-18T02:57:40;-8.90;99.90
23669;DHT22;12011;47.422;15.018;2022-12-18T03:00:16;-10.20;99.90
23669;DHT22;12011;47.422;15.018;2022-12-18T03:02:53;-10.20;99.90
23669;DHT22;12011;47.422;15.018;2022-12-18T03:05:31;-10.20;99.90
23669;DHT22;12011;47.422;15.018;2022-12-18T03:08:07;-10.30;99.90
23669;DHT22;12011;47.422;15.018;2022-12-18T03:10:45;-10.30;99.90
23669;DHT22;12011;47.422;15.018;2022-12-18T03:13:31;-10.30;99.90
23669;DHT22;12011;47.422;15.018;2022-12-18T03:16:08;-10.30;99.90
23669;DHT22;12011;47.422;15.018;2022-12-18T03:18:47;-10.40;99.90
23669;DHT22;12011;47.422;15.018;2022-12-18T03:21:29;-10.40;99.90
23669;DHT22;12011;47.422;15.018;2022-12-18T03:24:10;-10.20;99.90
23669;DHT22;12011;47.422;15.018;2022-12-18T03:26:46;-10.20;99.90
23669;DHT22;12011;47.422;15.018;2022-12-18T03:29:28;-10.20;99.90
23669;DHT22;12011;47.422;15.018;2022-12-18T03:32:09;-10.20;99.90
23669;DHT22;12011;47.422;15.018;2022-12-18T03:34:43;-10.80;99.90
23669;DHT22;12011;47.422;15.018;2022-12-18T03:37:20;-9.80;99.90
23669;DHT22;12011;47.422;15.018;2022-12-18T03:39:52;-10.30;99.90
23669;DHT22;12011;47.422;15.018;2022-12-18T03:42:29;-10.30;99.90
23669;DHT22;12011;47.422;15.018;2022-12-18T03:45:20;-10.30;99.90
23669;DHT22;12011;47.422;15.018;2022-12-18T03:48:01;-11.50;99.90
23669;DHT22;12011;47.422;15.018;2022-12-18T03:50:44;-10.30;99.90
23669;DHT22;12011;47.422;15.018;2022-12-18T03:53:28;-10.40;99.90
23669;DHT22;12011;47.422;15.018;2022-12-18T03:56:05;-10.30;99.90
23669;DHT22;12011;47.422;15.018;2022-12-18T03:58:41;-10.40;99.90
23669;DHT22;12011;47.422;15.018;2022-12-18T04:01:24;-10.40;99.90
23669;DHT22;12011;47.422;15.018;2022-12-18T04:04:00;-10.30;99.90
23669;DHT22;12011;47.422;15.018;2022-12-18T04:06:36;-10.20;99.90
23669;DHT22;12011;47.422;15.018;2022-12-18T04:09:08;-10.10;99.90
23669;DHT22;12011;47.422;15.018;2022-12-18T04:11:42;-10.20;99.90
23669;DHT22;12011;47.422;15.018;2022-12-18T04:14:14;-10.10;99.90
23669;DHT22;12011;47.422;15.018;2022-12-18T04:16:47;-10.20;99.90
23669;DHT22;12011;47.422;15.018;2022-12-18T04:19:21;-10.30;99.90
23669;DHT22;12011;47.422;15.018;2022-12-18T04:21:53;-10.40;99.90
23669;DHT22;12011;47.422;15.018;2022-12-18T04:24:22;-10.40;99.90
23669;DHT22;12011;47.422;15.018;2022-12-18T04:27:07;-10.50;99.90
23669;DHT22;12011;47.422;15.018;2022-12-18T04:29:42;-10.50;99.90
23669;DHT22;12011;47.422;15.018;2022-12-18T04:32:19;-9.20;99.90
23669;DHT22;12011;47.422;15.018;2022-12-18T04:34:48;-10.60;99.90
23669;DHT22;12011;47.422;15.018;2022-12-18T04:37:20;-10.50;99.90
23669;DHT22;12011;47.422;15.018;2022-12-18T04:39:51;-10.50;99.90
23669;DHT22;12011;47.422;15.018;2022-12-18T04:42:30;-10.60;99.90
23669;DHT22;12011;47.422;15.018;2022-12-18T04:44:59;-10.60;99.90
23669;DHT22;12011;47.422;15.018;2022-12-18T04:47:32;-10.60;99.90
23669;DHT22;12011;47.422;15.018;2022-12-18T04:50:03;-10.60;99.90
23669;DHT22;12011;47.422;15.018;2022-12-18T04:52:33;-10.60;99.90
23669;DHT22;12011;47.422;15.018;2022-12-18T04:55:05;-10.50;99.90
23669;DHT22;12011;47.422;15.018;2022-12-18T04:57:35;-10.50;99.90
23669;DHT22;12011;47.422;15.018;2022-12-18T05:00:06;-10.60;99.90
23669;DHT22;12011;47.422;15.018;2022-12-18T05:02:40;-10.50;99.90
23669;DHT22;12011;47.422;15.018;2022-12-18T05:05:09;-9.60;99.90
23669;DHT22;12011;47.422;15.018;2022-12-18T05:07:39;-10.50;99.90
23669;DHT22;12011;47.422;15.018;2022-12-18T05:10:09;-10.60;99.90
23669;DHT22;12011;47.422;15.018;2022-12-18T05:12:39;-10.60;99.90
23669;DHT22;12011;47.422;15.018;2022-12-18T05:15:20;-9.20;99.90
23669;DHT22;12011;47.422;15.018;2022-12-18T05:17:53;-10.70;99.90
23669;DHT22;12011;47.422;15.018;2022-12-18T05:20:23;-10.70;99.90
23669;DHT22;12011;47.422;15.018;2022-12-18T05:22:53;-10.70;99.90
23669;DHT22;12011;47.422;15.018;2022-12-18T05:25:23;-10.70;99.90
23669;DHT22;12011;47.422;15.018;2022-12-18T05:27:53;-10.80;99.90
23669;DHT22;12011;47.422;15.018;2022-12-18T05:30:22;-10.80;99.90
23669;DHT22;12011;47.422;15.018;2022-12-18T05:32:55;-10.80;99.90
23669;DHT22;12011;47.422;15.018;2022-12-18T05:35:24;-10.90;99.90
23669;DHT22;12011;47.422;15.018;2022-12-18T05:37:54;-10.90;99.90
23669;DHT22;12011;47.422;15.018;2022-12-18T05:40:23;-10.90;99.90
23669;DHT22;12011;47.422;15.018;2022-12-18T05:42:53;-10.80;99.90
23669;DHT22;12011;47.422;15.018;2022-12-18T05:45:22;-10.80;99.90
23669;DHT22;12011;47.422;15.018;2022-12-18T05:47:54;-10.80;99.90
23669;DHT22;12011;47.422;15.018;2022-12-18T05:50:24;-10.80;99.90
23669;DHT22;12011;47.422;15.018;2022-12-18T05:53:01;-10.80;99.90
23669;DHT22;12011;47.422;15.018;2022-12-18T05:55:32;-10.90;99.90
23669;DHT22;12011;47.422;15.018;2022-12-18T05:58:03;-10.90;99.90
23669;DHT22;12011;47.422;15.018;2022-12-18T06:00:35;-10.90;99.90
23669;DHT22;12011;47.422;15.018;2022-12-18T06:03:09;-10.90;99.90
23669;DHT22;12011;47.422;15.018;2022-12-18T06:05:42;-10.10;99.90
23669;DHT22;12011;47.422;15.018;2022-12-18T06:08:13;-11.00;99.90
23669;DHT22;12011;47.422;15.018;2022-12-18T06:10:50;-11.00;99.90
23669;DHT22;12011;47.422;15.018;2022-12-18T06:13:21;-11.00;99.90
23669;DHT22;12011;47.422;15.018;2022-12-18T06:15:51;-11.00;99.90
23669;DHT22;12011;47.422;15.018;2022-12-18T06:18:23;-11.00;99.90
23669;DHT22;12011;47.422;15.018;2022-12-18T06:20:55;-11.00;99.90
23669;DHT22;12011;47.422;15.018;2022-12-18T06:23:25;-10.90;99.90
23669;DHT22;12011;47.422;15.018;2022-12-18T06:25:55;-10.90;99.90
23669;DHT22;12011;47.422;15.018;2022-12-18T06:28:25;-10.90;99.90
23669;DHT22;12011;47.422;15.018;2022-12-18T06:30:55;-10.90;99.90
23669;DHT22;12011;47.422;15.018;2022-12-18T06:33:28;-10.80;99.90
23669;DHT22;12011;47.422;15.018;2022-12-18T06:36:00;-10.80;99.90
23669;DHT22;12011;47.422;15.018;2022-12-18T06:38:31;-10.80;99.90
23669;DHT22;12011;47.422;15.018;2022-12-18T06:41:06;-10.80;99.90
23669;DHT22;12011;47.422;15.018;2022-12-18T06:43:36;-10.70;99.90
23669;DHT22;12011;47.422;15.018;2022-12-18T06:46:06;-10.80;99.90
23669;DHT22;12011;47.422;15.018;2022-12-18T06:48:39;-10.80;99.90
23669;DHT22;12011;47.422;15.018;2022-12-18T06:51:09;-10.80;99.90
23669;DHT22;12011;47.422;15.018;2022-12-18T06:53:38;-10.80;99.90
23669;DHT22;12011;47.422;15.018;2022-12-18T06:56:08;-10.70;99.90
23669;DHT22;12011;47.422;15.018;2022-12-18T06:58:37;-10.70;99.90
23669;DHT22;12011;47.422;15.018;2022-12-18T07:01:10;-10.70;99.90
23669;DHT22;12011;47.422;15.018;2022-12-18T07:03:44;-10.70;99.90
23669;DHT22;12011;47.422;15.018;2022-12-18T07:06:24;-10.60;99.90
23669;DHT22;12011;47.422;15.018;2022-12-18T07:08:54;-10.60;99.90
23669;DHT22;12011;47.422;15.018;2022-12-18T07:11:24;-10.50;99.90
23669;DHT22;12011;47.422;15.018;2022-12-18T07:13:54;-10.40;99.90
23669;DHT22;12011;47.422;15.018;2022-12-18T07:16:25;-10.30;99.90
23669;DHT22;12011;47.422;15.018;2022-12-18T07:18:58;-10.20;99.90
23669;DHT22;12011;47.422;15.018;2022-12-18T07:21:28;-10.00;99.90
23669;DHT22;12011;47.422;15.018;2022-12-18T07:23:57;-9.90;99.90
23669;DHT22;12011;47.422;15.018;2022-12-18T07:26:27;-9.70;99.90
23669;DHT22;12011;47.422;15.018;2022-12-18T07:28:57;-9.60;99.90
23669;DHT22;12011;47.422;15.018;2022-12-18T07:31:27;-9.40;99.90
23669;DHT22;12011;47.422;15.018;2022-12-18T07:33:59;-9.40;99.90
23669;DHT22;12011;47.422;15.018;2022-12-18T07:36:29;-9.20;99.90
23669;DHT22;12011;47.422;15.018;2022-12-18T07:38:58;-9.00;99.90
23669;DHT22;12011;47.422;15.018;2022-12-18T07:41:28;-8.70;99.90
23669;DHT22;12011;47.422;15.018;2022-12-18T07:44:09;-6.50;99.90
23669;DHT22;12011;47.422;15.018;2022-12-18T07:46:39;-4.10;99.90
23669;DHT22;12011;47.422;15.018;2022-12-18T07:49:11;-3.40;97.70
23669;DHT22;12011;47.422;15.018;2022-12-18T07:51:41;-3.30;93.00
23669;DHT22;12011;47.422;15.018;2022-12-18T07:54:15;-2.70;92.70
23669;DHT22;12011;47.422;15.018;2022-12-18T07:56:45;-2.20;89.80
23669;DHT22;12011;47.422;15.018;2022-12-18T07:59:14;-1.00;85.10
23669;DHT22;12011;47.422;15.018;2022-12-18T08:01:45;-0.20;73.70
23669;DHT22;12011;47.422;15.018;2022-12-18T08:04:17;-0.40;71.10
23669;DHT22;12011;47.422;15.018;2022-12-18T08:06:49;0.30;78.20
23669;DHT22;12011;47.422;15.018;2022-12-18T08:09:19;0.90;74.10
23669;DHT22;12011;47.422;15.018;2022-12-18T08:11:48;1.50;76.60
23669;DHT22;12011;47.422;15.018;2022-12-18T08:14:18;1.90;65.90
23669;DHT22;12011;47.422;15.018;2022-12-18T08:16:47;2.10;61.80
23669;DHT22;12011;47.422;15.018;2022-12-18T08:19:20;2.50;62.40
23669;DHT22;12011;47.422;15.018;2022-12-18T08:21:49;3.00;58.70
23669;DHT22;12011;47.422;15.018;2022-12-18T08:24:19;3.20;54.30
23669;DHT22;12011;47.422;15.018;2022-12-18T08:26:48;3.60;52.90
23669;DHT22;12011;47.422;15.018;2022-12-18T08:29:18;3.80;49.40
23669;DHT22;12011;47.422;15.018;2022-12-18T08:31:48;4.20;47.40
23669;DHT22;12011;47.422;15.018;2022-12-18T08:34:20;4.40;45.20
23669;DHT22;12011;47.422;15.018;2022-12-18T08:36:50;5.00;42.70
23669;DHT22;12011;47.422;15.018;2022-12-18T08:39:19;4.90;41.80
23669;DHT22;12011;47.422;15.018;2022-12-18T08:41:49;4.80;41.80
23669;DHT22;12011;47.422;15.018;2022-12-18T08:44:31;5.20;41.60
23669;DHT22;12011;47.422;15.018;2022-12-18T08:47:07;5.60;40.70
23669;DHT22;12011;47.422;15.018;2022-12-18T08:49:39;5.70;40.40
23669;DHT22;12011;47.422;15.018;2022-12-18T08:52:09;5.30;39.50
23669;DHT22;12011;47.422;15.018;2022-12-18T08:54:42;5.10;40.00
23669;DHT22;12011;47.422;15.018;2022-12-18T08:57:11;4.60;41.10
23669;DHT22;12011;47.422;15.018;2022-12-18T08:59:41;4.10;42.00
23669;DHT22;12011;47.422;15.018;2022-12-18T09:02:11;3.00;44.10
23669;DHT22;12011;47.422;15.018;2022-12-18T09:04:43;1.20;46.30
23669;DHT22;12011;47.422;15.018;2022-12-18T09:07:15;-0.20;50.40
23669;DHT22;12011;47.422;15.018;2022-12-18T09:09:45;-1.70;55.90
23669;DHT22;12011;47.422;15.018;2022-12-18T09:12:14;-2.70;65.90
23669;DHT22;12011;47.422;15.018;2022-12-18T09:14:44;-2.00;73.60
23669;DHT22;12011;47.422;15.018;2022-12-18T09:17:16;-3.60;79.80
23669;DHT22;12011;47.422;15.018;2022-12-18T09:19:48;-3.60;84.80
23669;DHT22;12011;47.422;15.018;2022-12-18T09:22:18;-4.10;90.80
23669;DHT22;12011;47.422;15.018;2022-12-18T09:24:49;-3.90;93.90
23669;DHT22;12011;47.422;15.018;2022-12-18T09:27:18;-3.60;93.70
23669;DHT22;12011;47.422;15.018;2022-12-18T09:29:48;-4.10;95.00
23669;DHT22;12011;47.422;15.018;2022-12-18T09:32:17;-4.50;96.00
23669;DHT22;12011;47.422;15.018;2022-12-18T09:34:49;-3.80;97.40
23669;DHT22;12011;47.422;15.018;2022-12-18T09:37:19;-3.90;97.30
23669;DHT22;12011;47.422;15.018;2022-12-18T09:39:48;-4.50;96.10
23669;DHT22;12011;47.422;15.018;2022-12-18T09:42:21;-4.40;98.80
23669;DHT22;12011;47.422;15.018;2022-12-18T09:44:53;-3.90;97.90
23669;DHT22;12011;47.422;15.018;2022-12-18T09:47:28;-3.10;98.70
23669;DHT22;12011;47.422;15.018;2022-12-18T09:50:14;-4.30;99.10
23669;DHT22;12011;47.422;15.018;2022-12-18T09:52:53;-4.30;98.70
23669;DHT22;12011;47.422;15.018;2022-12-18T09:55:30;-4.20;98.80
23669;DHT22;12011;47.422;15.018;2022-12-18T09:58:07;-4.30;96.40
23669;DHT22;12011;47.422;15.018;2022-12-18T10:00:44;-4.40;96.90
23669;DHT22;12011;47.422;15.018;2022-12-18T10:06:10;-4.20;98.80
23669;DHT22;12011;47.422;15.018;2022-12-18T10:08:51;-4.20;99.40
23669;DHT22;12011;47.422;15.018;2022-12-18T10:11:38;-4.10;97.60
23669;DHT22;12011;47.422;15.018;2022-12-18T10:14:20;-4.10;97.20
23669;DHT22;12011;47.422;15.018;2022-12-18T10:17:21;-4.20;98.40
23669;DHT22;12011;47.422;15.018;2022-12-18T10:20:01;-4.10;98.70
23669;DHT22;12011;47.422;15.018;2022-12-18T10:22:50;-4.10;99.80
23669;DHT22;12011;47.422;15.018;2022-12-18T10:25:46;-4.00;99.00
23669;DHT22;12011;47.422;15.018;2022-12-18T10:28:26;-4.00;99.90
23669;DHT22;12011;47.422;15.018;2022-12-18T10:31:21;-3.80;99.50
23669;DHT22;12011;47.422;15.018;2022-12-18T10:34:21;-3.80;99.90
23669;DHT22;12011;47.422;15.018;2022-12-18T10:37:21;-3.80;98.40
23669;DHT22;12011;47.422;15.018;2022-12-18T10:40:17;-3.70;99.90
23669;DHT22;12011;47.422;15.018;2022-12-18T10:43:04;-3.70;99.90
23669;DHT22;12011;47.422;15.018;2022-12-18T10:45:34;-3.30;99.90
23669;DHT22;12011;47.422;15.018;2022-12-18T10:48:04;-3.70;99.90
23669;DHT22;12011;47.422;15.018;2022-12-18T10:50:51;-3.70;99.90
23669;DHT22;12011;47.422;15.018;2022-12-18T10:53:23;-3.30;99.90
23669;DHT22;12011;47.422;15.018;2022-12-18T10:56:04;-3.10;99.90
23669;DHT22;12011;47.422;15.018;2022-12-18T10:58:38;-3.50;99.80
23669;DHT22;12011;47.422;15.018;2022-12-18T11:01:11;-3.50;99.90
23669;DHT22;12011;47.422;15.018;2022-12-18T11:03:44;-3.50;99.90
23669;DHT22;12011;47.422;15.018;2022-12-18T11:06:16;-3.40;99.90
23669;DHT22;12011;47.422;15.018;2022-12-18T11:08:59;-3.40;99.90
23669;DHT22;12011;47.422;15.018;2022-12-18T11:11:33;-2.70;99.90
23669;DHT22;12011;47.422;15.018;2022-12-18T11:14:05;-3.10;99.90
23669;DHT22;12011;47.422;15.018;2022-12-18T11:16:45;-3.30;99.90
23669;DHT22;12011;47.422;15.018;2022-12-18T11:19:25;-2.80;99.90
23669;DHT22;12011;47.422;15.018;2022-12-18T11:22:00;-3.20;99.90
23669;DHT22;12011;47.422;15.018;2022-12-18T11:24:32;-3.10;99.90
23669;DHT22;12011;47.422;15.018;2022-12-18T11:27:20;-3.00;97.60
23669;DHT22;12011;47.422;15.018;2022-12-18T11:30:21;-2.90;98.60
23669;DHT22;12011;47.422;15.018;2022-12-18T11:33:03;-2.90;96.90
23669;DHT22;12011;47.422;15.018;2022-12-18T11:35:49;-2.80;96.80
23669;DHT22;12011;47.422;15.018;2022-12-18T11:38:24;-2.50;98.40
23669;DHT22;12011;47.422;15.018;2022-12-18T11:41:00;-2.40;97.00
23669;DHT22;12011;47.422;15.018;2022-12-18T11:43:45;-2.10;97.40
23669;DHT22;12011;47.422;15.018;2022-12-18T11:46:27;-1.70;94.30
23669;DHT22;12011;47.422;15.018;2022-12-18T11:49:07;-1.40;91.40
23669;DHT22;12011;47.422;15.018;2022-12-18T11:51:50;-1.00;89.50
23669;DHT22;12011;47.422;15.018;2022-12-18T11:54:22;-0.70;82.90
23669;DHT22;12011;47.422;15.018;2022-12-18T11:56:58;0.10;80.80
23669;DHT22;12011;47.422;15.018;2022-12-18T11:59:49;1.10;71.80
23669;DHT22;12011;47.422;15.018;2022-12-18T12:02:40;1.60;62.90
23669;DHT22;12011;47.422;15.018;2022-12-18T12:05:30;2.10;60.00
23669;DHT22;12011;47.422;15.018;2022-12-18T12:08:15;2.60;57.00
23669;DHT22;12011;47.422;15.018;2022-12-18T12:11:01;3.20;55.20
23669;DHT22;12011;47.422;15.018;2022-12-18T12:13:49;3.80;54.00
23669;DHT22;12011;47.422;15.018;2022-12-18T12:16:34;4.20;51.60
23669;DHT22;12011;47.422;15.018;2022-12-18T12:19:26;4.80;49.60
23669;DHT22;12011;47.422;15.018;2022-12-18T12:22:15;5.10;48.10
23669;DHT22;12011;47.422;15.018;2022-12-18T12:25:02;5.10;47.20
23669;DHT22;12011;47.422;15.018;2022-12-18T12:27:45;5.10;46.90
23669;DHT22;12011;47.422;15.018;2022-12-18T12:30:22;4.70;46.50
23669;DHT22;12011;47.422;15.018;2022-12-18T12:33:15;4.50;47.80
23669;DHT22;12011;47.422;15.018;2022-12-18T12:36:00;4.80;47.50
23669;DHT22;12011;47.422;15.018;2022-12-18T12:38:41;4.80;47.50
23669;DHT22;12011;47.422;15.018;2022-12-18T12:41:16;4.70;47.50
23669;DHT22;12011;47.422;15.018;2022-12-18T12:44:04;4.80;47.20
23669;DHT22;12011;47.422;15.018;2022-12-18T12:46:39;4.70;47.80
23669;DHT22;12011;47.422;15.018;2022-12-18T12:49:18;4.60;47.60
23669;DHT22;12011;47.422;15.018;2022-12-18T12:51:58;4.20;47.50
23669;DHT22;12011;47.422;15.018;2022-12-18T12:54:32;4.30;47.90
23669;DHT22;12011;47.422;15.018;2022-12-18T12:57:11;4.80;48.70
23669;DHT22;12011;47.422;15.018;2022-12-18T12:59:52;4.50;48.40
23669;DHT22;12011;47.422;15.018;2022-12-18T13:02:34;4.40;48.20
23669;DHT22;12011;47.422;15.018;2022-12-18T13:05:19;4.20;48.40
23669;DHT22;12011;47.422;15.018;2022-12-18T13:07:56;3.70;49.00
23669;DHT22;12011;47.422;15.018;2022-12-18T13:10:33;3.70;50.00
23669;DHT22;12011;47.422;15.018;2022-12-18T13:13:06;3.20;51.00
23669;DHT22;12011;47.422;15.018;2022-12-18T13:15:41;3.00;52.10
23669;DHT22;12011;47.422;15.018;2022-12-18T13:18:19;3.30;53.60
23669;DHT22;12011;47.422;15.018;2022-12-18T13:21:07;3.30;53.50
23669;DHT22;12011;47.422;15.018;2022-12-18T13:23:43;2.70;54.30
23669;DHT22;12011;47.422;15.018;2022-12-18T13:26:29;2.20;56.50
23669;DHT22;12011;47.422;15.018;2022-12-18T13:29:03;2.10;60.70
23669;DHT22;12011;47.422;15.018;2022-12-18T13:32:03;1.00;63.90
23669;DHT22;12011;47.422;15.018;2022-12-18T13:38:21;0.60;73.70
23669;DHT22;12011;47.422;15.018;2022-12-18T13:40:59;0.20;75.90
23669;DHT22;12011;47.422;15.018;2022-12-18T13:43:35;-0.10;78.00
23669;DHT22;12011;47.422;15.018;2022-12-18T13:46:24;-0.30;80.80
23669;DHT22;12011;47.422;15.018;2022-12-18T13:49:00;-0.40;83.50
23669;DHT22;12011;47.422;15.018;2022-12-18T13:51:34;-0.50;87.00
23669;DHT22;12011;47.422;15.018;2022-12-18T13:54:19;-0.60;85.40
23669;DHT22;12011;47.422;15.018;2022-12-18T13:57:00;-0.70;87.90
23669;DHT22;12011;47.422;15.018;2022-12-18T13:59:34;-0.70;90.10
23669;DHT22;12011;47.422;15.018;2022-12-18T14:02:13;-0.50;90.10
23669;DHT22;12011;47.422;15.018;2022-12-18T14:04:46;-0.90;90.40
23669;DHT22;12011;47.422;15.018;2022-12-18T14:07:19;-0.20;90.30
23669;DHT22;12011;47.422;15.018;2022-12-18T14:09:55;-0.90;90.10
23669;DHT22;12011;47.422;15.018;2022-12-18T14:12:30;-1.00;90.00
23669;DHT22;12011;47.422;15.018;2022-12-18T14:15:31;-0.80;90.00
23669;DHT22;12011;47.422;15.018;2022-12-18T14:18:19;-1.30;91.40
23669;DHT22;12011;47.422;15.018;2022-12-18T14:20:55;-1.40;91.30
23669;DHT22;12011;47.422;15.018;2022-12-18T14:23:34;-1.40;92.70
23669;DHT22;12011;47.422;15.018;2022-12-18T14:26:25;-0.70;94.60
23669;DHT22;12011;47.422;15.018;2022-12-18T14:28:58;-1.60;93.30
23669;DHT22;12011;47.422;15.018;2022-12-18T14:32:05;-1.70;94.30
23669;DHT22;12011;47.422;15.018;2022-12-18T14:34:45;-1.80;93.60
23669;DHT22;12011;47.422;15.018;2022-12-18T14:37:17;-1.20;95.10
23669;DHT22;12011;47.422;15.018;2022-12-18T14:39:56;-2.00;96.50
23669;DHT22;12011;47.422;15.018;2022-12-18T14:42:33;-0.80;95.60
23669;DHT22;12011;47.422;15.018;2022-12-18T14:45:33;-1.30;97.10
23669;DHT22;12011;47.422;15.018;2022-12-18T14:48:11;-2.30;96.40
23669;DHT22;12011;47.422;15.018;2022-12-18T14:50:53;-2.50;97.60
23669;DHT22;12011;47.422;15.018;2022-12-18T14:53:34;-1.70;98.20
23669;DHT22;12011;47.422;15.018;2022-12-18T14:56:16;-2.70;97.60
23669;DHT22;12011;47.422;15.018;2022-12-18T14:58:53;-2.70;97.30
23669;DHT22;12011;47.422;15.018;2022-12-18T15:01:27;-3.00;99.10
23669;DHT22;12011;47.422;15.018;2022-12-18T15:03:59;-2.90;99.90
23669;DHT22;12011;47.422;15.018;2022-12-18T15:06:35;-2.20;99.90
23669;DHT22;12011;47.422;15.018;2022-12-18T15:09:23;-3.30;99.90
23669;DHT22;12011;47.422;15.018;2022-12-18T15:11:57;-2.60;99.90
23669;DHT22;12011;47.422;15.018;2022-12-18T15:14:38;-3.60;99.90
23669;DHT22;12011;47.422;15.018;2022-12-18T15:17:17;-2.60;99.90
23669;DHT22;12011;47.422;15.018;2022-12-18T15:19:53;-4.00;99.90
23669;DHT22;12011;47.422;15.018;2022-12-18T15:22:30;-4.10;99.90
23669;DHT22;12011;47.422;15.018;2022-12-18T15:27:54;-4.20;99.90
23669;DHT22;12011;47.422;15.018;2022-12-18T15:30:26;-3.50;99.90
23669;DHT22;12011;47.422;15.018;2022-12-18T15:33:22;-4.50;99.90
23669;DHT22;12011;47.422;15.018;2022-12-18T15:35:57;-4.60;99.90
23669;DHT22;12011;47.422;15.018;2022-12-18T15:38:27;-4.60;99.90
23669;DHT22;12011;47.422;15.018;2022-12-18T15:41:25;-3.50;99.90
23669;DHT22;12011;47.422;15.018;2022-12-18T15:46:59;-5.20;99.90
23669;DHT22;12011;47.422;15.018;2022-12-18T15:49:29;-5.30;99.90
23669;DHT22;12011;47.422;15.018;2022-12-18T15:52:01;-4.70;99.90
23669;DHT22;12011;47.422;15.018;2022-12-18T15:54:31;-4.70;99.90
23669;DHT22;12011;47.422;15.018;2022-12-18T15:57:13;-4.90;99.90
23669;DHT22;12011;47.422;15.018;2022-12-18T15:59:54;-5.40;99.90
23669;DHT22;12011;47.422;15.018;2022-12-18T16:02:27;-5.40;99.90
23669;DHT22;12011;47.422;15.018;2022-12-18T16:04:56;-5.40;99.90
23669;DHT22;12011;47.422;15.018;2022-12-18T16:07:26;-5.50;99.90
23669;DHT22;12011;47.422;15.018;2022-12-18T16:09:55;-5.10;99.90
23669;DHT22;12011;47.422;15.018;2022-12-18T16:12:25;-5.00;99.90
23669;DHT22;12011;47.422;15.018;2022-12-18T16:14:56;-5.70;99.90
23669;DHT22;12011;47.422;15.018;2022-12-18T16:17:28;-5.80;99.90
23669;DHT22;12011;47.422;15.018;2022-12-18T16:19:57;-5.80;99.90
23669;DHT22;12011;47.422;15.018;2022-12-18T16:22:30;-5.90;99.90